Date,TemperatureHighF,TemperatureAvgF,TemperatureLowF,DewpointHighF,DewpointAvgF,DewpointLowF,HumidityHigh,HumidityAvg,HumidityLow,PressureMaxIn,PressureMinIn,WindSpeedMaxMPH,WindSpeedAvgMPH,GustSpeedMaxMPH,PrecipitationSumIn
2013-1-1,33,27,22,32,5,-7,98,40,23,30.09,29.94,10,2,10,0.00
2013-1-2,25,23,21,3,-3,-6,42,32,27,30.21,30.03,11,3,11,0.00
2013-1-3,30,24,19,17,1,-9,59,36,23,30.18,30.06,13,4,13,0.00
2013-1-4,36,30,27,14,2,-6,53,30,22,30.15,30.03,17,5,17,0.00
2013-1-5,34,30,27,11,5,0,46,34,25,30.36,30.09,15,4,15,0.00
2013-1-6,36,34,34,34,17,4,98,53,27,30.18,29.97,14,3,14,0.00
2013-1-7,35,31,28,33,13,3,98,50,27,30.41,30.18,20,4,20,0.00
2013-1-8,43,34,27,6,3,0,37,27,20,30.33,30.21,14,4,14,0.00
2013-1-9,51,41,35,20,8,1,44,25,19,30.44,30.12,18,5,18,0.17
2013-1-10,46,35,24,37,15,2,98,52,19,30.62,30.27,10,0,12,0.00
2013-1-11,51,47,42,50,28,4,97,58,19,30.27,29.88,20,6,20,0.25
2013-1-12,61,55,48,54,49,45,98,83,57,30.06,29.97,15,4,15,0.00
2013-1-13,65,54,40,54,48,39,98,82,58,29.97,29.79,23,4,23,0.08
2013-1-14,40,31,27,39,16,2,98,58,33,30.41,29.97,13,2,13,0.08
2013-1-15,34,28,25,6,1,-5,39,31,23,30.41,30.12,7,1,7,0.00
2013-1-16,38,32,28,13,6,-1,45,34,22,30.12,29.88,15,2,15,0.00
2013-1-17,35,32,23,24,8,-7,83,37,24,30.18,29.94,13,3,13,0.00
2013-1-18,36,25,19,0,-7,-11,32,24,22,30.47,30.03,24,6,24,0.00
2013-1-19,52,44,35,11,5,0,22,20,18,30.06,29.68,21,7,28,0.00
2013-1-20,48,29,21,7,-2,-9,52,26,19,30.12,29.62,27,5,27,0.17
2013-1-21,23,18,12,15,6,-9,85,62,25,30.09,29.91,13,2,13,0.00
2013-1-22,12,9,6,6,4,1,80,80,80,30.21,29.97,24,5,24,0.00
2013-1-23,14,11,9,9,-1,-14,80,62,26,30.24,30.06,17,4,17,0.00
2013-1-24,22,14,6,0,-12,-21,52,30,25,30.53,30.03,10,2,10,0.00
2013-1-25,18,13,7,-3,-11,-20,44,32,26,30.47,30.06,9,2,9,0.00
2013-1-26,27,21,14,6,0,-3,48,40,32,30.41,30.06,8,2,8,0.00
2013-1-27,34,27,21,3,-2,-6,40,28,22,30.53,30.30,10,2,10,0.00
2013-1-28,47,39,29,47,33,3,98,82,31,30.30,29.94,20,5,20,0.50
2013-1-29,62,49,37,56,47,36,98,94,59,30.06,29.74,25,4,25,0.50
2013-1-30,64,59,37,57,49,37,98,71,49,29.74,29.23,24,8,24,0.29
2013-1-31,37,26,20,37,12,-5,98,59,30,29.85,29.29,24,6,24,0.12
2013-2-1,21,18,13,10,-4,-14,79,40,25,30.27,29.79,17,5,17,0.00
2013-2-2,21,16,11,11,-4,-13,66,41,32,30.24,29.97,15,5,15,0.00
2013-2-3,24,19,16,11,5,-6,76,55,27,29.97,29.85,13,2,13,0.00
2013-2-4,26,20,16,7,-1,-12,58,40,25,30.06,29.91,13,2,13,0.00
2013-2-5,32,24,19,12,4,-5,66,44,23,29.97,29.88,8,1,8,0.00
2013-2-6,33,23,9,17,0,-8,63,38,23,30.39,29.94,11,2,11,0.04
2013-2-7,45,29,8,13,1,-8,55,30,20,30.36,29.94,12,3,12,0.09
2013-2-8,36,29,20,33,14,0,89,55,30,30.21,29.79,15,5,15,0.25
2013-2-9,31,20,11,3,-1,-6,58,41,23,30.44,30.21,10,2,10,0.04
2013-2-10,52,33,14,10,2,-6,57,28,18,30.33,29.88,15,4,15,0.00
2013-2-11,54,39,33,39,17,4,83,43,20,29.88,29.71,22,7,22,0.00
2013-2-12,33,31,29,18,11,6,61,43,31,30.09,29.88,18,4,18,0.00
2013-2-13,41,30,24,19,8,2,72,41,21,29.94,29.79,9,1,9,0.00
2013-2-14,39,32,23,29,16,9,78,52,30,29.94,29.82,19,5,19,0.00
2013-2-15,37,31,24,13,5,-5,43,33,25,30.12,29.85,17,3,17,0.00
2013-2-16,30,22,11,6,-4,-12,47,31,23,30.12,29.97,11,2,11,0.00
2013-2-17,22,19,11,2,-6,-13,49,33,25,30.24,29.94,14,2,14,0.00
2013-2-18,45,27,10,6,-4,-15,36,25,20,30.30,29.82,21,4,21,0.00
2013-2-19,47,32,19,33,19,5,95,64,19,29.91,29.65,19,6,19,0.16
2013-2-20,22,19,16,14,2,-10,79,48,25,30.21,29.88,14,4,14,0.00
2013-2-21,27,20,14,2,-2,-8,49,38,24,30.41,30.15,12,2,12,0.00
2013-2-22,36,28,14,28,10,-2,73,48,25,30.33,29.97,19,4,19,0.09
2013-2-23,37,33,29,23,14,5,60,46,30,30.00,29.91,13,3,13,0.08
2013-2-24,31,28,22,15,10,4,73,46,36,30.18,29.91,12,2,12,0.00
2013-2-25,44,28,17,20,8,0,80,48,20,30.27,30.12,10,1,10,0.00
2013-2-26,43,34,24,35,13,2,94,47,20,30.15,29.65,13,3,13,0.58
2013-2-27,40,36,33,40,32,19,98,86,46,29.71,29.59,15,3,15,0.25
2013-2-28,34,33,31,33,32,28,98,97,91,29.88,29.62,9,1,9,0.12
2013-3-1,31,28,24,28,13,6,90,56,42,30.03,29.85,9,2,9,0.00
2013-3-2,25,24,22,10,6,4,54,47,41,30.03,29.97,10,2,10,0.00
2013-3-3,30,24,22,18,9,4,75,53,39,30.06,29.94,12,3,12,0.00
2013-3-4,32,24,19,12,5,-3,61,45,25,30.15,30.00,10,2,10,0.00
2013-3-5,39,27,16,17,10,2,80,50,21,30.12,29.82,10,2,10,0.04
2013-3-6,40,32,26,28,15,5,86,51,23,30.18,29.82,10,2,10,0.00
2013-3-7,36,33,31,35,31,20,98,92,64,30.36,30.15,8,1,8,0.05
2013-3-8,43,33,27,28,21,4,94,64,23,30.44,30.33,10,1,10,0.00
2013-3-9,47,35,24,39,20,6,98,63,22,30.44,30.15,8,1,9,0.00
2013-3-10,69,56,46,22,13,6,22,18,15,30.15,29.97,18,6,18,0.00
2013-3-11,60,55,42,46,18,11,97,28,17,29.97,29.68,17,5,17,0.49
2013-3-12,42,36,33,41,20,9,96,54,36,30.00,29.79,14,4,14,0.04
2013-3-13,33,30,25,21,11,-4,81,46,23,30.09,29.88,17,4,17,0.00
2013-3-14,34,28,24,7,0,-6,43,31,23,30.24,30.06,19,4,19,0.00
2013-3-15,35,32,25,33,20,2,98,66,31,30.09,29.91,14,2,14,0.00
2013-3-16,33,29,21,33,18,4,98,65,41,30.03,29.79,10,1,10,0.05
2013-3-17,35,29,21,17,5,-4,66,38,22,30.27,30.03,8,1,8,0.08
2013-3-18,37,33,24,32,16,-1,83,51,28,30.27,29.65,25,7,25,0.28
2013-3-19,36,30,25,36,18,5,98,65,35,29.94,29.71,18,4,18,0.08
2013-3-20,33,27,23,14,5,-4,56,38,23,29.97,29.88,16,4,16,0.08
2013-3-21,29,24,18,25,11,-5,94,59,26,29.91,29.85,16,3,16,0.08
2013-3-22,30,27,25,24,12,7,90,53,40,30.06,29.85,8,2,10,0.00
2013-3-23,40,32,27,14,10,4,52,40,23,30.12,30.00,10,1,10,0.08
2013-3-24,38,29,19,26,11,-1,87,49,21,30.09,29.65,13,2,13,0.08
2013-3-25,38,33,29,27,20,10,89,60,39,29.85,29.59,13,3,13,0.08
2013-3-26,42,35,30,29,22,17,91,62,41,30.09,29.82,12,2,12,0.08
2013-3-27,39,35,33,32,20,12,95,58,34,30.18,30.06,14,3,14,0.08
2013-3-28,39,34,32,38,28,16,98,82,45,30.30,30.12,10,1,10,0.12
2013-3-29,48,38,27,23,14,5,64,38,22,30.30,30.24,14,2,14,0.08
2013-3-30,55,39,23,19,11,2,77,37,18,30.27,30.06,10,1,10,0.08
2013-3-31,55,47,40,45,18,4,98,38,18,30.06,29.71,15,4,15,0.08
2013-4-1,47,35,29,39,12,-2,95,44,21,30.06,29.68,15,4,15,0.09
2013-4-2,37,31,26,6,-1,-6,32,25,22,30.21,30.03,15,4,15,0.08
2013-4-3,36,30,21,4,-1,-5,46,26,22,30.47,30.18,17,3,17,0.08
2013-4-4,56,34,21,12,3,-5,47,28,17,30.39,30.00,9,2,9,0.00
2013-4-5,44,36,27,17,8,-3,41,31,21,30.24,29.94,13,2,13,0.08
2013-4-6,52,38,20,25,10,2,88,38,18,30.33,30.00,13,2,13,0.08
2013-4-7,68,54,35,28,16,10,73,24,15,30.12,29.82,26,5,26,0.08
2013-4-8,70,53,31,43,26,17,98,47,17,30.12,29.91,20,3,20,0.08
2013-4-9,63,51,42,42,31,23,83,50,24,30.21,29.94,21,3,21,0.08
2013-4-10,54,45,39,53,43,34,98,95,56,30.03,29.91,13,2,13,0.58
2013-4-11,40,38,36,40,38,35,98,98,96,30.06,29.74,17,3,17,0.08
2013-4-12,45,41,38,45,37,26,98,88,56,29.88,29.56,15,3,15,0.25
2013-4-13,44,40,35,39,31,22,98,74,44,30.03,29.85,14,4,14,0.08
2013-4-14,47,40,35,32,26,19,84,60,37,30.18,30.03,10,2,10,0.08
2013-4-15,76,61,43,31,22,18,62,23,15,30.12,30.00,18,6,18,0.21
2013-4-16,67,55,48,59,42,23,98,70,24,30.27,30.03,22,4,22,0.38
2013-4-17,56,49,39,47,30,11,98,56,18,30.39,30.12,14,2,14,0.08
2013-4-18,85,69,43,55,36,23,90,35,13,30.18,29.79,25,6,25,0.08
2013-4-19,70,54,40,44,33,19,98,51,22,29.85,29.50,23,6,23,0.16
2013-4-20,42,36,30,34,20,10,98,53,30,30.44,29.85,18,4,18,0.08
2013-4-21,43,35,23,34,17,6,98,55,23,30.65,30.44,12,2,12,0.08
2013-4-22,64,50,32,27,13,7,80,26,15,30.50,30.30,14,4,14,0.08
2013-4-23,72,58,42,24,15,6,26,18,15,30.30,29.97,17,5,17,0.08
2013-4-24,64,49,35,53,33,12,98,65,15,30.15,29.79,22,5,22,0.54
2013-4-25,56,42,33,39,30,10,98,71,17,30.36,30.15,19,4,19,0.00
2013-4-26,55,43,31,45,22,7,98,54,18,30.53,30.36,10,1,10,0.00
2013-4-27,68,53,36,29,19,10,74,31,15,30.44,30.21,9,2,9,0.00
2013-4-28,65,57,53,54,31,11,95,48,17,30.21,29.97,17,5,17,0.08
2013-4-29,63,56,52,57,52,46,98,86,61,30.06,29.94,16,3,16,0.08
2013-4-30,75,64,54,56,45,23,98,59,16,30.24,30.06,15,4,15,0.00
2013-5-1,80,66,57,43,32,18,60,33,15,30.41,30.24,14,3,14,0.00
2013-5-2,79,66,57,27,19,12,19,16,14,30.39,30.27,14,3,14,0.00
2013-5-3,81,68,57,29,20,13,17,16,14,30.30,30.24,16,4,16,0.00
2013-5-4,76,62,49,28,19,12,44,20,15,30.27,30.21,13,4,13,0.00
2013-5-5,74,60,42,51,27,12,98,38,15,30.21,30.12,14,2,14,0.00
2013-5-6,71,61,51,33,18,11,40,19,14,30.18,30.12,17,3,17,0.00
2013-5-7,75,64,51,54,37,23,95,42,16,30.15,30.09,10,2,10,0.00
2013-5-8,72,61,54,58,43,29,98,58,22,30.09,30.03,7,0,7,0.17
2013-5-9,73,61,54,62,48,21,98,69,16,30.09,29.97,8,1,8,0.00
2013-5-10,76,63,54,62,47,24,98,61,24,30.03,29.82,19,3,19,0.54
2013-5-11,54,47,43,53,46,42,98,96,84,29.91,29.82,19,2,19,0.08
2013-5-12,50,43,35,43,22,5,97,50,21,30.09,29.88,13,3,15,0.00
2013-5-13,49,41,32,22,9,1,66,27,21,30.27,30.03,11,2,11,0.00
2013-5-14,52,44,32,43,20,4,93,44,19,30.18,29.88,15,3,15,0.08
2013-5-15,81,64,50,54,30,19,95,31,14,29.91,29.74,25,4,25,0.00
2013-5-16,76,61,47,60,36,16,98,53,15,30.09,29.85,13,1,13,0.00
2013-5-17,67,56,43,46,31,17,92,43,17,30.24,30.06,10,2,10,0.00
2013-5-18,76,63,53,41,26,19,63,26,15,30.24,30.15,12,2,12,0.00
2013-5-19,84,71,56,52,42,32,73,40,19,30.15,30.09,14,3,14,0.00
2013-5-20,88,75,63,63,51,34,93,50,15,30.12,30.00,11,3,11,0.00
2013-5-21,90,76,65,69,57,29,98,61,13,30.00,29.91,15,3,15,0.38
2013-5-22,88,76,65,67,51,26,98,52,13,29.94,29.82,16,3,16,0.08
2013-5-23,73,60,44,66,59,43,98,95,61,30.03,29.82,12,2,12,0.71
2013-5-24,49,43,40,43,35,28,98,75,48,30.30,30.03,13,3,13,0.04
2013-5-25,58,49,36,45,33,26,98,58,33,30.36,30.27,12,2,12,0.00
2013-5-26,64,50,36,50,29,13,98,53,16,30.33,30.24,11,1,11,0.00
2013-5-27,67,54,37,46,31,18,98,52,17,30.30,30.18,8,1,8,0.00
2013-5-28,78,64,53,67,59,39,98,87,49,30.18,29.97,13,3,13,2.03
2013-5-29,83,74,65,66,54,41,98,52,24,30.12,29.97,16,3,16,0.00
2013-5-30,87,76,68,70,58,47,93,57,26,30.24,30.12,8,1,8,0.08
2013-5-31,89,76,66,69,50,29,98,50,13,30.15,30.03,18,3,18,0.46
2013-6-1,86,73,66,69,64,54,98,77,39,30.06,29.85,18,4,18,1.24
2013-6-2,76,68,58,67,58,48,98,74,42,30.00,29.79,19,3,19,0.54
2013-6-3,60,54,45,51,39,31,95,60,36,30.12,29.97,10,1,10,0.00
2013-6-4,66,54,42,58,34,18,98,59,18,30.24,30.09,8,1,8,0.00
2013-6-5,71,59,45,54,35,20,98,51,17,30.21,30.03,13,2,13,0.00
2013-6-6,62,58,54,62,56,45,98,94,59,30.03,29.14,7,0,7,1.08
2013-6-7,60,56,54,59,55,52,98,95,77,29.94,29.88,8,1,8,0.20
2013-6-8,68,59,50,59,54,44,98,84,46,30.18,29.91,9,1,9,0.20
2013-6-9,77,64,49,63,43,24,98,57,16,30.21,30.09,9,1,9,0.20
2013-6-10,73,69,64,71,63,42,98,86,37,30.09,29.82,10,2,10,0.33
2013-6-11,80,63,0,70,60,-100,98,91,50,29.97,29.79,11,-12,11,0.26
2013-6-12,82,68,59,66,61,-100,98,81,55,30.00,29.82,6,-4,6,1.71
2013-6-13,72,64,56,67,61,52,98,92,68,29.88,29.53,12,2,12,0.83
2013-6-14,70,61,53,62,54,48,98,80,50,30.09,29.85,10,0,10,0.08
2013-6-15,78,64,49,62,40,23,98,53,15,30.12,30.03,8,1,8,0.00
2013-6-16,75,69,64,66,54,43,97,62,42,30.03,29.85,17,3,17,0.00
2013-6-17,81,70,60,64,49,30,98,55,18,30.03,29.91,10,1,10,0.04
2013-6-18,69,62,51,62,54,40,98,77,41,30.09,29.91,10,2,12,0.30
2013-6-19,71,59,47,63,41,19,98,61,17,30.21,30.09,9,1,9,0.00
2013-6-20,76,63,50,52,36,23,98,44,15,30.33,30.18,8,1,8,0.00
2013-6-21,85,69,52,56,40,25,98,46,13,30.33,30.21,6,1,6,0.00
2013-6-22,90,78,66,52,41,33,60,30,15,30.24,30.12,12,2,12,0.00
2013-6-23,89,78,70,67,48,36,87,38,18,30.18,30.12,10,1,10,0.00
2013-6-24,86,78,69,74,50,36,100,41,19,30.21,30.09,10,1,10,0.00
2013-6-25,82,74,67,70,59,48,100,64,33,30.09,29.94,17,2,17,0.25
2013-6-26,80,72,66,73,65,57,98,83,47,29.97,29.88,13,1,13,0.24
2013-6-27,74,69,66,72,68,65,98,97,89,29.88,29.74,8,0,8,1.16
2013-6-28,76,68,64,71,64,55,98,87,51,29.74,29.59,9,0,9,0.13
2013-6-29,75,67,64,67,62,54,97,84,51,29.76,29.56,8,0,8,1.16
2013-6-30,76,68,61,68,60,53,96,77,49,29.97,29.76,9,1,9,0.00
2013-7-1,69,66,64,66,63,61,94,90,78,30.06,29.91,10,2,10,0.25
2013-7-2,76,68,61,66,62,59,95,82,61,30.12,30.00,10,1,10,0.04
2013-7-3,89,75,65,73,65,42,94,75,21,30.21,30.09,11,1,11,0.29
2013-7-4,83,74,69,72,67,62,92,82,49,30.21,30.15,10,1,10,0.42
2013-7-5,83,72,68,71,67,63,91,84,55,30.18,30.15,11,1,11,0.25
2013-7-6,85,76,68,73,67,61,95,75,49,30.18,30.09,8,1,8,0.16
2013-7-7,79,72,68,68,65,62,91,79,60,30.12,30.06,10,2,10,0.04
2013-7-8,85,75,67,68,64,60,89,73,46,30.12,30.06,9,1,9,0.34
2013-7-9,84,74,69,72,68,65,91,81,59,30.09,30.00,12,2,12,0.53
2013-7-10,90,74,68,76,68,60,90,83,51,30.00,29.82,23,3,23,0.58
2013-7-11,75,68,60,65,56,48,92,68,41,30.09,29.94,9,1,9,0.04
2013-7-12,81,69,58,69,58,50,96,70,42,30.18,30.06,12,1,12,0.04
2013-7-13,80,71,59,69,61,56,93,74,48,30.30,30.15,10,1,10,0.04
2013-7-14,89,77,67,70,64,56,90,67,33,30.33,30.27,9,1,9,0.04
2013-7-15,88,79,70,73,69,65,89,75,51,30.36,30.30,9,1,9,0.04
2013-7-16,91,80,70,78,67,52,92,68,29,30.36,30.30,6,1,6,0.04
2013-7-17,90,81,72,76,68,62,89,67,42,30.33,30.21,10,1,10,0.04
2013-7-18,89,82,75,76,70,63,87,70,47,30.21,30.09,9,1,9,0.04
2013-7-19,92,83,74,69,62,51,76,52,27,30.09,29.91,13,3,13,0.04
2013-7-20,79,72,66,71,65,54,90,81,48,30.00,29.82,14,2,14,0.92
2013-7-21,82,72,64,75,58,48,97,66,37,30.09,29.97,9,1,9,0.04
2013-7-22,80,70,61,72,63,58,96,81,54,30.06,29.82,6,0,6,0.33
2013-7-23,84,71,64,74,64,58,96,81,46,29.85,29.74,10,1,10,0.54
2013-7-24,69,62,53,58,47,33,92,59,28,30.09,29.85,10,2,10,0.04
2013-7-25,75,63,51,54,40,23,95,54,16,30.15,30.06,10,1,10,0.04
2013-7-26,78,67,55,60,45,29,94,55,18,30.15,30.03,8,1,8,0.04
2013-7-27,71,66,61,66,61,56,91,83,58,30.06,29.85,10,1,10,0.70
2013-7-28,73,65,60,66,48,28,96,60,19,30.03,29.88,9,1,9,0.29
2013-7-29,74,63,57,57,50,35,92,65,24,30.21,30.03,9,1,9,0.04
2013-7-30,75,65,56,66,53,42,98,70,36,30.24,30.18,9,1,9,0.04
2013-7-31,82,69,58,60,54,36,92,63,20,30.21,29.97,9,1,9,0.04
2013-8-1,77,69,63,66,61,49,93,77,42,30.00,29.88,11,2,11,0.21
2013-8-2,77,69,62,67,54,42,96,63,31,30.00,29.94,12,2,12,0.04
2013-8-3,76,69,60,65,53,32,91,61,23,30.06,29.94,8,1,8,0.04
2013-8-4,72,65,58,60,52,43,93,66,46,30.15,30.03,10,2,10,0.12
2013-8-5,73,62,50,62,41,23,98,57,16,30.15,30.06,7,1,7,0.04
2013-8-6,84,69,57,61,48,27,92,56,14,30.09,30.03,9,1,9,0.04
2013-8-7,83,72,64,71,62,57,90,71,46,30.03,29.97,14,3,14,0.04
2013-8-8,85,74,70,74,69,65,92,84,51,30.06,29.94,13,2,13,0.09
2013-8-9,76,69,60,69,61,44,92,77,38,30.06,29.94,8,1,8,0.04
2013-8-10,76,67,59,60,44,24,93,53,15,30.18,30.03,7,1,7,0.04
2013-8-11,80,66,54,67,43,24,98,56,15,30.18,30.09,8,1,8,0.04
2013-8-12,74,66,61,66,60,51,91,80,45,30.12,29.88,8,0,8,0.12
2013-8-13,69,64,58,65,53,37,97,70,42,30.03,29.82,10,2,10,0.71
2013-8-14,70,62,56,51,41,28,83,49,23,30.15,30.00,12,2,12,0.04
2013-8-15,73,60,50,56,46,30,98,67,23,30.18,30.12,8,0,8,0.04
2013-8-16,78,63,51,61,42,23,96,59,15,30.24,30.15,6,0,6,0.04
2013-8-17,82,66,52,65,46,27,98,60,14,30.30,30.24,8,0,8,0.04
2013-8-18,80,68,58,63,54,35,92,65,20,30.27,30.18,9,1,9,0.04
2013-8-19,78,68,59,70,61,51,92,80,45,30.21,30.12,8,1,8,0.04
2013-8-20,83,70,58,65,54,31,94,66,16,30.24,30.12,9,1,9,0.04
2013-8-21,86,73,62,67,55,36,91,62,19,30.21,30.12,8,1,8,0.04
2013-8-22,82,73,67,71,67,63,91,81,66,30.12,30.06,11,2,11,0.04
2013-8-23,78,70,58,68,57,41,96,66,33,30.24,30.06,10,1,10,0.04
2013-8-24,78,65,55,57,46,24,94,60,15,30.36,30.24,9,1,9,0.04
2013-8-25,85,70,56,64,46,27,97,54,13,30.36,30.24,9,2,9,0.04
2013-8-26,88,74,68,67,49,30,92,48,13,30.24,30.03,19,3,19,0.54
2013-8-27,83,74,69,76,69,64,95,84,61,30.03,29.97,12,1,12,0.04
2013-8-28,79,73,68,74,68,65,90,86,73,30.03,29.88,10,1,10,0.83
2013-8-29,84,74,67,76,65,61,97,77,47,30.12,30.03,8,1,8,0.04
2013-8-30,88,74,66,74,63,52,98,70,32,30.09,29.85,9,1,9,0.00
2013-8-31,81,73,68,72,68,64,91,86,65,29.91,29.79,8,1,8,0.50
2013-9-1,85,72,66,72,66,60,96,82,47,29.88,29.82,10,0,10,0.79
2013-9-2,78,71,65,73,64,54,94,79,62,29.88,29.79,10,1,10,0.21
2013-9-3,66,63,59,58,54,49,90,72,62,30.03,29.88,10,2,10,0.21
2013-9-4,76,66,57,60,53,45,92,65,37,30.09,30.00,12,2,12,0.21
2013-9-5,71,64,53,58,36,23,83,37,20,30.24,30.03,8,1,8,0.21
2013-9-6,71,58,45,53,33,20,91,46,17,30.27,30.12,8,1,8,0.21
2013-9-7,79,64,53,66,47,26,92,61,15,30.12,29.94,11,2,11,0.21
2013-9-8,71,65,52,66,52,29,93,70,23,30.12,29.94,12,2,12,0.21
2013-9-9,77,64,52,69,56,47,93,76,48,30.12,30.03,10,2,10,0.21
2013-9-10,94,82,72,73,66,51,91,63,27,30.15,30.00,10,3,10,0.21
2013-9-11,92,81,68,74,67,45,92,66,21,30.15,30.06,15,2,15,0.33
2013-9-12,74,68,62,70,63,50,94,84,58,30.06,29.88,10,0,10,0.21
2013-9-13,62,58,52,56,46,37,86,66,47,30.09,29.88,10,1,10,0.21
2013-9-14,63,54,44,46,34,19,97,51,19,30.18,30.06,8,1,8,0.21
2013-9-15,70,58,45,57,44,25,98,66,20,30.15,30.09,9,1,9,0.21
2013-9-16,63,55,46,60,52,44,98,90,75,30.33,30.12,12,0,12,0.21
2013-9-17,67,52,38,50,39,20,98,70,18,30.41,30.27,8,1,8,0.21
2013-9-18,77,60,47,54,39,24,98,54,15,30.27,30.12,9,1,9,0.21
2013-9-19,81,66,56,63,55,45,96,71,30,30.12,30.06,11,2,11,0.21
2013-9-20,79,70,63,70,66,61,94,87,70,30.06,29.85,16,4,16,0.21
2013-9-21,70,63,53,68,60,50,97,91,81,29.85,29.71,9,1,10,1.82
2013-9-22,61,55,52,51,43,36,80,63,47,30.06,29.82,8,1,8,0.21
2013-9-23,60,52,42,45,38,32,96,62,36,30.18,30.06,8,0,8,0.21
2013-9-24,68,52,41,53,44,40,98,76,40,30.12,30.00,8,1,8,0.21
2013-9-25,70,55,44,58,44,33,98,72,26,30.00,29.94,4,0,6,0.00
2013-9-26,71,56,44,61,41,21,98,67,17,30.15,29.97,11,1,11,0.00
2013-9-27,71,58,47,63,47,38,98,72,33,30.27,30.12,10,1,10,0.00
2013-9-28,78,63,52,54,42,23,96,57,15,30.27,30.15,11,2,11,0.00
2013-9-29,74,64,54,58,42,34,81,48,24,30.15,30.03,14,3,14,0.00
2013-9-30,68,63,58,65,59,53,94,88,65,30.06,30.00,10,1,10,0.00
2013-10-1,77,65,57,64,58,52,97,81,45,30.09,30.00,9,1,10,0.00
2013-10-2,75,64,53,65,58,50,95,81,50,30.12,30.00,11,2,11,0.00
2013-10-3,82,63,50,65,56,49,98,80,34,30.12,30.03,8,1,8,0.50
2013-10-4,79,70,65,68,63,59,92,82,55,30.09,30.03,11,2,11,0.00
2013-10-5,80,68,63,74,63,58,96,85,50,30.09,30.00,6,0,6,0.46
2013-10-6,82,74,66,70,60,50,92,66,36,30.00,29.76,17,3,17,0.00
2013-10-7,66,55,49,60,47,34,98,76,40,30.09,29.74,14,2,14,0.83
2013-10-8,68,54,45,57,39,17,98,68,17,30.33,30.09,8,1,8,0.04
2013-10-9,74,56,47,49,36,21,95,54,16,30.36,30.24,9,2,9,0.00
2013-10-10,69,55,42,49,34,20,96,53,17,30.24,30.12,9,1,9,0.00
2013-10-11,73,56,44,54,37,20,98,61,16,30.15,30.09,6,1,9,0.00
2013-10-12,76,60,45,58,47,38,98,68,31,30.18,30.09,8,1,8,0.00
2013-10-13,71,64,57,62,53,45,96,69,47,30.30,30.15,12,2,12,0.12
2013-10-14,65,56,43,56,38,17,97,59,18,30.36,30.27,12,1,12,0.00
2013-10-15,71,59,43,60,52,42,98,80,49,30.27,29.94,13,1,13,0.00
2013-10-16,70,61,55,61,57,46,97,85,64,29.94,29.82,17,3,17,0.67
2013-10-17,66,54,48,52,47,36,98,81,34,29.91,29.76,13,2,13,0.25
2013-10-18,65,54,48,49,38,18,98,64,18,29.97,29.79,13,3,13,0.04
2013-10-19,55,49,43,49,38,31,98,70,40,29.91,29.71,11,3,11,0.74
2013-10-20,60,48,40,44,36,16,98,70,19,30.00,29.85,13,3,13,0.79
2013-10-21,66,55,49,51,26,14,94,38,16,30.00,29.82,18,5,18,0.00
2013-10-22,50,45,42,49,32,21,97,63,36,29.91,29.82,13,2,13,0.21
2013-10-23,46,41,38,44,34,15,98,80,33,29.88,29.74,12,2,12,0.33
2013-10-24,44,37,34,41,35,32,98,93,76,30.06,29.85,12,3,12,0.17
2013-10-25,50,42,37,41,34,25,98,73,40,30.27,30.06,12,3,12,0.25
2013-10-26,45,41,38,42,21,8,98,47,22,30.15,29.79,22,5,22,0.16
2013-10-27,49,43,35,41,24,6,94,53,19,30.06,29.88,11,2,11,0.00
2013-10-28,57,43,36,37,19,12,88,39,25,30.30,30.03,11,2,11,0.00
2013-10-29,56,43,30,46,18,5,98,43,18,30.39,30.24,8,1,8,0.00
2013-10-30,68,49,35,40,21,12,85,36,17,30.24,30.06,8,1,8,0.00
2013-10-31,66,60,55,61,56,29,96,86,36,30.06,29.38,26,6,26,0.71
2013-11-1,61,54,50,59,46,37,95,74,56,29.71,29.29,20,4,26,0.20
2013-11-2,50,46,40,48,44,40,98,95,84,30.00,29.65,10,2,10,0.71
2013-11-3,45,37,26,40,25,13,98,66,31,30.47,30.00,10,1,10,0.00
2013-11-4,46,36,27,23,10,2,80,38,20,30.56,30.36,13,3,13,0.00
2013-11-5,56,48,40,12,8,3,21,19,17,30.41,30.27,12,4,12,0.00
2013-11-6,66,56,46,57,25,6,95,38,17,30.27,29.88,23,5,23,0.33
2013-11-7,55,43,38,54,28,5,98,63,21,30.09,29.91,13,3,13,0.38
2013-11-8,46,39,34,35,11,2,96,34,20,30.24,30.00,13,3,13,0.04
2013-11-9,55,44,33,46,12,2,93,30,18,30.21,29.88,20,5,20,0.12
2013-11-10,51,45,41,45,24,5,96,50,20,30.24,29.88,18,4,18,0.08
2013-11-11,45,39,29,40,19,5,98,53,20,30.21,30.03,18,3,18,0.38
2013-11-12,37,31,28,30,14,0,98,51,25,30.41,30.12,15,3,15,0.00
2013-11-13,39,33,29,10,2,-1,44,26,21,30.47,30.18,22,4,22,0.00
2013-11-14,50,40,31,9,3,-3,23,21,19,30.21,30.06,21,6,22,0.16
2013-11-15,54,46,39,11,7,3,21,20,18,30.15,30.06,17,4,17,0.00
2013-11-16,61,52,42,25,16,5,38,24,19,30.18,29.97,16,4,16,0.00
2013-11-17,64,59,52,58,48,23,95,73,25,29.97,29.44,22,8,27,0.63
2013-11-18,53,44,37,39,27,16,70,50,41,30.03,29.56,20,6,21,0.00
2013-11-19,38,34,25,26,18,13,96,52,38,30.39,30.03,12,2,12,0.00
2013-11-20,52,36,23,29,13,1,98,50,19,30.47,30.33,14,3,14,0.00
2013-11-21,44,40,37,41,22,1,97,59,21,30.39,30.21,17,4,17,0.12
2013-11-22,49,44,34,47,41,20,98,90,56,30.27,30.09,13,3,13,0.17
2013-11-23,37,30,20,22,13,-8,85,49,24,30.27,30.15,20,4,20,0.00
2013-11-24,25,22,19,11,-3,-8,69,34,24,30.47,30.27,17,4,17,0.00
2013-11-25,32,25,16,12,-2,-9,51,30,23,30.41,30.12,18,6,18,0.00
2013-11-26,36,33,32,32,14,-1,94,51,23,30.18,29.82,14,2,14,0.00
2013-11-27,33,30,25,33,18,3,98,65,32,30.03,29.74,17,2,17,0.00
2013-11-28,28,26,24,11,5,1,56,41,34,30.36,30.03,12,4,17,0.00
2013-11-29,41,27,21,26,10,-4,84,53,21,30.68,30.36,8,1,9,0.04
2013-11-30,39,30,22,8,3,-1,45,32,21,30.59,30.18,15,5,15,0.04
2013-12-1,40,37,34,15,11,7,41,34,29,30.18,29.97,12,3,12,0.12
2013-12-2,40,35,26,23,18,15,86,51,39,30.00,29.91,6,0,6,0.05
2013-12-3,48,33,24,37,22,10,96,69,24,29.97,29.88,6,0,6,0.00
2013-12-4,58,49,42,33,24,20,70,38,25,29.97,29.82,19,3,19,0.00
2013-12-5,63,50,33,41,29,18,67,45,36,30.09,29.79,17,5,17,0.00
2013-12-6,35,32,27,32,20,9,96,64,38,30.33,30.06,6,0,8,0.00
2013-12-7,28,25,23,23,4,-5,82,41,27,30.53,30.30,10,1,10,0.00
2013-12-8,29,25,22,10,1,-6,45,35,23,30.53,30.06,15,2,15,0.00
2013-12-9,36,33,27,34,17,1,93,56,32,30.12,29.88,14,4,14,0.08
2013-12-10,30,25,22,9,0,-6,53,35,23,30.12,29.97,18,4,18,0.00
2013-12-11,24,22,18,16,3,-11,76,45,25,30.33,30.12,16,4,16,0.00
2013-12-12,19,17,14,-2,-9,-14,48,30,25,30.39,30.12,15,4,15,0.00
2013-12-13,29,23,18,9,0,-12,51,37,25,30.30,30.09,15,3,15,0.00
2013-12-14,32,25,19,30,16,3,92,69,45,30.27,29.68,7,1,8,0.00
2013-12-15,32,25,18,31,21,1,98,83,44,29.97,29.65,15,2,15,0.00
2013-12-16,23,15,4,7,1,-10,66,53,42,30.18,29.97,12,1,12,0.00
2013-12-17,28,24,14,20,12,-2,77,59,43,30.06,29.88,12,3,13,0.00
2013-12-18,30,27,25,21,11,0,79,52,33,30.15,29.97,22,5,22,0.00
2013-12-19,46,39,27,19,8,-4,39,28,22,30.06,29.88,19,4,22,0.08
2013-12-20,53,46,42,52,36,16,98,71,32,29.97,29.82,20,6,20,0.46
2013-12-21,56,47,37,55,46,36,98,96,94,29.88,29.65,14,3,15,1.57
2013-12-22,61,44,34,57,42,33,98,91,63,30.03,29.53,27,4,27,0.42
2013-12-23,39,33,29,38,27,13,97,78,48,30.33,30.00,15,3,15,0.04
2013-12-24,29,22,18,22,9,-3,93,59,35,30.50,30.18,15,3,15,0.00
2013-12-25,26,20,14,2,-4,-9,50,34,24,30.50,30.12,14,3,14,0.00
2013-12-26,33,28,25,24,10,0,80,49,32,30.33,30.03,18,4,18,0.00
2013-12-27,37,32,24,20,10,0,59,41,31,30.33,30.12,13,3,13,0.00
2013-12-28,51,44,36,16,11,8,34,26,21,30.18,30.00,19,5,19,0.04
2013-12-29,45,40,27,26,13,4,75,36,20,30.00,29.71,15,4,15,0.00
2013-12-30,27,20,17,19,-1,-9,75,41,28,30.27,29.88,10,2,10,0.00
2013-12-31,21,19,16,11,2,-6,68,48,34,30.27,29.97,15,4,15,0.00
2014-1-1,23,19,17,10,5,-1,66,53,42,30.39,30.15,9,2,10,0.00
2014-1-2,17,14,8,3,0,-3,59,53,45,30.15,29.91,20,5,20,0.00